Rapid City, SD

8:28 AM MST on January 23, 2017 (GMT -0700)
South Robbinsdale | | Change Station
Active Advisory: Winter Storm Watch

Elev 3255 ft 44.05 °N, 103.21 °W | Updated 24 seconds ago

Overcast
Overcast
22.1 °F
Feels Like 22 °F
N
0.0
Wind Variable Wind from NNW
Gusts 0.0 mph

Today
High -- | Low -- °F
--% Chance of Precip.
Yesterday
High -- | Low -- °F
Precip. -- in
Pressure 29.77 in
Visibility 10.0 miles
Clouds Few 300 ft
Mostly Cloudy 7500 ft
Overcast 11000 ft
Windchill 22 °F
Dew Point 17 °F
Humidity 81%
Rainfall 0.00 in
Snow Depth Not available.
7:18 AM 4:51 PM
Waning Crescent, 18% visible
METAR KRAP 231452Z 12004KT 10SM FEW003 BKN075 OVC110 M06/M07 A2966 RMK AO2 SLP081 T10611072 58003
Pressure 29.77 in
Visibility 10.0 miles
Clouds Few 300 ft
Mostly Cloudy 7500 ft
Overcast 11000 ft
Windchill 22 °F
Dew Point 17 °F
Humidity 81%
Rainfall 0.00 in
Snow Depth Not available.
7:18 AM 4:51 PM
Waning Crescent, 18% visible
METAR KRAP 231452Z 12004KT 10SM FEW003 BKN075 OVC110 M06/M07 A2966 RMK AO2 SLP081 T10611072 58003

Get Your Daily Forecast Email!

Thanks for signing up!

Be on the lookout for a verification email in your inbox.

You'll start receiving the daily forecast at 8 AM.

×

10-Day Weather Forecast

Almanac

Astronomy

Jan. 23, 2017 Rise Set
Actual Time
Civil Twilight
Nautical Twilight
Astronomical Twilight
Moon
Length of Visible Light
Length of Day
Tomorrow will be .
, % of the Moon is Illuminated

Today's Extremes

State Highs State Lows

Community

WunderPhotos

Upload Photos

1,962,540 photos uploaded!

WunderBlog® & News

Nearby

Air Quality

  Air Quality AQ Index Pollutant
Not available.

Snow Depth

Station Depth Elevation

Earthquake Activity

City Distance Mag. Time & Date
Minimum magnitude displayed is 2.5.

Coastal Water Temperatures

Place Temperature

Stations

Nearby Weather Stations

Station Location Temp. Windchill Dew Point Humidity Wind Precip. Elev Updated Type
                   

Watches & Warnings

Winter Storm Watch
Issued: 4:18 AM CST Jan. 23, 2017 – National Weather Service

... Winter Storm Watch remains in effect from this evening through
late Tuesday night...

* snow is expected from late tonight through Tuesday night.

* Total snow accumulations in excess of 6 inches are
possible... especially over south central South Dakota.

* Gusty northerly winds are likely... supporting blowing and
drifting snow and leading to difficult travel.

Precautionary/preparedness actions...

A Winter Storm Watch means there is potential for significant
snow... sleet or ice accumulations that may impact travel.
Continue to monitor the latest forecasts.